sensor_id;sensor_type;location;lat;lon;timestamp;P1;durP1;ratioP1;P2;durP2;ratioP2
55146;SDS011;41039;49.830;23.988;2022-12-29T00:01:23;6.40;;;3.28;;
55146;SDS011;41039;49.830;23.988;2022-12-29T00:03:48;6.80;;;3.28;;
55146;SDS011;41039;49.830;23.988;2022-12-29T00:06:13;7.60;;;3.00;;
55146;SDS011;41039;49.830;23.988;2022-12-29T00:08:38;4.38;;;2.50;;
55146;SDS011;41039;49.830;23.988;2022-12-29T00:11:07;6.22;;;3.75;;
55146;SDS011;41039;49.830;23.988;2022-12-29T00:13:33;4.43;;;2.53;;
55146;SDS011;41039;49.830;23.988;2022-12-29T00:16:17;5.80;;;2.92;;
55146;SDS011;41039;49.830;23.988;2022-12-29T00:18:43;5.75;;;3.05;;
55146;SDS011;41039;49.830;23.988;2022-12-29T00:21:11;6.38;;;2.72;;
55146;SDS011;41039;49.830;23.988;2022-12-29T00:23:56;7.22;;;2.80;;
55146;SDS011;41039;49.830;23.988;2022-12-29T00:26:40;7.70;;;5.30;;
55146;SDS011;41039;49.830;23.988;2022-12-29T00:29:24;7.47;;;3.75;;
55146;SDS011;41039;49.830;23.988;2022-12-29T00:32:09;3.75;;;2.13;;
55146;SDS011;41039;49.830;23.988;2022-12-29T00:34:53;4.82;;;2.42;;
55146;SDS011;41039;49.830;23.988;2022-12-29T00:37:34;4.35;;;2.60;;
55146;SDS011;41039;49.830;23.988;2022-12-29T00:40:25;4.30;;;1.73;;
55146;SDS011;41039;49.830;23.988;2022-12-29T00:45:53;5.03;;;2.17;;
55146;SDS011;41039;49.830;23.988;2022-12-29T00:48:18;4.25;;;2.08;;
55146;SDS011;41039;49.830;23.988;2022-12-29T00:51:03;3.35;;;1.77;;
55146;SDS011;41039;49.830;23.988;2022-12-29T00:53:29;5.15;;;2.42;;
55146;SDS011;41039;49.830;23.988;2022-12-29T00:55:54;3.92;;;2.28;;
55146;SDS011;41039;49.830;23.988;2022-12-29T00:58:19;5.10;;;2.13;;
55146;SDS011;41039;49.830;23.988;2022-12-29T01:00:44;5.80;;;2.20;;
55146;SDS011;41039;49.830;23.988;2022-12-29T01:03:09;5.93;;;2.05;;
55146;SDS011;41039;49.830;23.988;2022-12-29T01:05:37;4.15;;;2.45;;
55146;SDS011;41039;49.830;23.988;2022-12-29T01:08:03;3.83;;;1.85;;
55146;SDS011;41039;49.830;23.988;2022-12-29T01:10:28;3.58;;;1.95;;
55146;SDS011;41039;49.830;23.988;2022-12-29T01:12:53;4.35;;;2.10;;
55146;SDS011;41039;49.830;23.988;2022-12-29T01:15:18;3.92;;;1.92;;
55146;SDS011;41039;49.830;23.988;2022-12-29T01:17:44;3.85;;;1.80;;
55146;SDS011;41039;49.830;23.988;2022-12-29T01:20:09;3.42;;;1.67;;
55146;SDS011;41039;49.830;23.988;2022-12-29T01:22:35;4.50;;;2.13;;
55146;SDS011;41039;49.830;23.988;2022-12-29T01:25:00;2.65;;;1.40;;
55146;SDS011;41039;49.830;23.988;2022-12-29T01:27:26;3.40;;;1.67;;
55146;SDS011;41039;49.830;23.988;2022-12-29T01:29:51;3.28;;;1.33;;
55146;SDS011;41039;49.830;23.988;2022-12-29T01:32:16;2.97;;;1.33;;
55146;SDS011;41039;49.830;23.988;2022-12-29T01:34:41;4.03;;;1.10;;
55146;SDS011;41039;49.830;23.988;2022-12-29T01:37:07;4.00;;;1.20;;
55146;SDS011;41039;49.830;23.988;2022-12-29T01:39:32;2.47;;;1.30;;
55146;SDS011;41039;49.830;23.988;2022-12-29T01:41:57;3.53;;;1.20;;
55146;SDS011;41039;49.830;23.988;2022-12-29T01:47:07;4.05;;;1.90;;
55146;SDS011;41039;49.830;23.988;2022-12-29T01:49:33;3.42;;;1.67;;
55146;SDS011;41039;49.830;23.988;2022-12-29T01:52:05;2.58;;;1.55;;
55146;SDS011;41039;49.830;23.988;2022-12-29T01:57:00;5.28;;;1.83;;
55146;SDS011;41039;49.830;23.988;2022-12-29T01:59:28;3.22;;;1.30;;
55146;SDS011;41039;49.830;23.988;2022-12-29T02:01:54;3.08;;;1.30;;
55146;SDS011;41039;49.830;23.988;2022-12-29T02:04:19;3.13;;;1.30;;
55146;SDS011;41039;49.830;23.988;2022-12-29T02:06:46;3.72;;;1.50;;
55146;SDS011;41039;49.830;23.988;2022-12-29T02:09:13;4.82;;;1.90;;
55146;SDS011;41039;49.830;23.988;2022-12-29T02:11:38;3.78;;;1.83;;
55146;SDS011;41039;49.830;23.988;2022-12-29T02:14:11;3.17;;;1.48;;
55146;SDS011;41039;49.830;23.988;2022-12-29T02:19:23;3.78;;;0.95;;
55146;SDS011;41039;49.830;23.988;2022-12-29T02:25:00;3.60;;;1.35;;
55146;SDS011;41039;49.830;23.988;2022-12-29T02:30:03;2.88;;;1.23;;
55146;SDS011;41039;49.830;23.988;2022-12-29T02:35:30;3.58;;;1.27;;
55146;SDS011;41039;49.830;23.988;2022-12-29T02:40:45;3.42;;;1.60;;
55146;SDS011;41039;49.830;23.988;2022-12-29T02:43:13;3.47;;;1.35;;
55146;SDS011;41039;49.830;23.988;2022-12-29T02:45:47;4.13;;;1.90;;
55146;SDS011;41039;49.830;23.988;2022-12-29T02:50:52;4.70;;;1.75;;
55146;SDS011;41039;49.830;23.988;2022-12-29T02:53:19;4.13;;;1.65;;
55146;SDS011;41039;49.830;23.988;2022-12-29T02:56:05;2.97;;;1.63;;
55146;SDS011;41039;49.830;23.988;2022-12-29T02:58:30;3.25;;;1.63;;
55146;SDS011;41039;49.830;23.988;2022-12-29T03:01:15;5.20;;;1.58;;
55146;SDS011;41039;49.830;23.988;2022-12-29T03:03:44;5.70;;;1.65;;
55146;SDS011;41039;49.830;23.988;2022-12-29T03:11:45;3.95;;;1.63;;
55146;SDS011;41039;49.830;23.988;2022-12-29T03:14:53;4.32;;;2.40;;
55146;SDS011;41039;49.830;23.988;2022-12-29T03:20:06;3.60;;;2.00;;
55146;SDS011;41039;49.830;23.988;2022-12-29T03:22:34;5.18;;;2.28;;
55146;SDS011;41039;49.830;23.988;2022-12-29T03:25:13;4.93;;;1.80;;
55146;SDS011;41039;49.830;23.988;2022-12-29T03:27:41;4.35;;;2.10;;
55146;SDS011;41039;49.830;23.988;2022-12-29T03:30:07;4.47;;;1.85;;
55146;SDS011;41039;49.830;23.988;2022-12-29T03:32:44;4.82;;;1.67;;
55146;SDS011;41039;49.830;23.988;2022-12-29T03:35:10;4.68;;;1.70;;
55146;SDS011;41039;49.830;23.988;2022-12-29T03:37:38;3.72;;;1.63;;
55146;SDS011;41039;49.830;23.988;2022-12-29T03:40:04;5.93;;;1.92;;
55146;SDS011;41039;49.830;23.988;2022-12-29T03:42:30;4.38;;;1.75;;
55146;SDS011;41039;49.830;23.988;2022-12-29T03:44:57;3.53;;;1.75;;
55146;SDS011;41039;49.830;23.988;2022-12-29T03:47:23;4.28;;;1.40;;
55146;SDS011;41039;49.830;23.988;2022-12-29T03:49:48;3.75;;;1.52;;
55146;SDS011;41039;49.830;23.988;2022-12-29T03:52:13;2.97;;;1.52;;
55146;SDS011;41039;49.830;23.988;2022-12-29T03:54:38;6.18;;;1.42;;
55146;SDS011;41039;49.830;23.988;2022-12-29T03:57:04;4.60;;;1.90;;
55146;SDS011;41039;49.830;23.988;2022-12-29T03:59:29;3.47;;;1.55;;
55146;SDS011;41039;49.830;23.988;2022-12-29T04:01:54;3.85;;;1.95;;
55146;SDS011;41039;49.830;23.988;2022-12-29T04:04:19;4.45;;;2.00;;
55146;SDS011;41039;49.830;23.988;2022-12-29T04:06:45;4.03;;;1.80;;
55146;SDS011;41039;49.830;23.988;2022-12-29T04:09:10;4.07;;;2.00;;
55146;SDS011;41039;49.830;23.988;2022-12-29T04:11:36;4.25;;;1.90;;
55146;SDS011;41039;49.830;23.988;2022-12-29T04:14:01;5.78;;;2.40;;
55146;SDS011;41039;49.830;23.988;2022-12-29T04:16:26;6.38;;;2.05;;
55146;SDS011;41039;49.830;23.988;2022-12-29T04:18:51;4.88;;;2.88;;
55146;SDS011;41039;49.830;23.988;2022-12-29T04:21:17;6.45;;;2.28;;
55146;SDS011;41039;49.830;23.988;2022-12-29T04:23:42;4.78;;;2.10;;
55146;SDS011;41039;49.830;23.988;2022-12-29T04:26:08;3.65;;;2.10;;
55146;SDS011;41039;49.830;23.988;2022-12-29T04:28:34;8.82;;;2.05;;
55146;SDS011;41039;49.830;23.988;2022-12-29T04:30:59;3.90;;;1.60;;
55146;SDS011;41039;49.830;23.988;2022-12-29T04:33:24;7.07;;;2.15;;
55146;SDS011;41039;49.830;23.988;2022-12-29T04:35:50;3.25;;;1.75;;
55146;SDS011;41039;49.830;23.988;2022-12-29T04:38:17;5.18;;;1.90;;
55146;SDS011;41039;49.830;23.988;2022-12-29T04:40:42;4.93;;;2.17;;
55146;SDS011;41039;49.830;23.988;2022-12-29T04:43:08;3.60;;;1.80;;
55146;SDS011;41039;49.830;23.988;2022-12-29T04:45:33;2.70;;;1.65;;
55146;SDS011;41039;49.830;23.988;2022-12-29T04:47:58;3.65;;;1.60;;
55146;SDS011;41039;49.830;23.988;2022-12-29T04:50:24;4.40;;;2.08;;
55146;SDS011;41039;49.830;23.988;2022-12-29T04:52:49;3.53;;;1.73;;
55146;SDS011;41039;49.830;23.988;2022-12-29T04:55:14;3.20;;;1.70;;
55146;SDS011;41039;49.830;23.988;2022-12-29T04:57:39;4.55;;;2.53;;
55146;SDS011;41039;49.830;23.988;2022-12-29T05:00:05;5.82;;;2.35;;
55146;SDS011;41039;49.830;23.988;2022-12-29T05:02:30;4.68;;;2.10;;
55146;SDS011;41039;49.830;23.988;2022-12-29T05:04:55;4.47;;;2.17;;
55146;SDS011;41039;49.830;23.988;2022-12-29T05:07:21;2.97;;;1.70;;
55146;SDS011;41039;49.830;23.988;2022-12-29T05:09:46;6.43;;;2.00;;
55146;SDS011;41039;49.830;23.988;2022-12-29T05:12:11;3.65;;;1.90;;
55146;SDS011;41039;49.830;23.988;2022-12-29T05:14:36;4.65;;;2.03;;
55146;SDS011;41039;49.830;23.988;2022-12-29T05:17:02;5.07;;;2.00;;
55146;SDS011;41039;49.830;23.988;2022-12-29T05:19:27;5.70;;;2.63;;
55146;SDS011;41039;49.830;23.988;2022-12-29T05:21:52;5.85;;;2.40;;
55146;SDS011;41039;49.830;23.988;2022-12-29T05:24:18;8.65;;;4.20;;
55146;SDS011;41039;49.830;23.988;2022-12-29T05:26:43;8.27;;;3.53;;
55146;SDS011;41039;49.830;23.988;2022-12-29T05:29:08;6.45;;;3.08;;
55146;SDS011;41039;49.830;23.988;2022-12-29T05:31:33;5.60;;;2.88;;
55146;SDS011;41039;49.830;23.988;2022-12-29T05:34:00;5.63;;;2.63;;
55146;SDS011;41039;49.830;23.988;2022-12-29T05:36:25;5.07;;;2.72;;
55146;SDS011;41039;49.830;23.988;2022-12-29T05:38:51;5.68;;;2.95;;
55146;SDS011;41039;49.830;23.988;2022-12-29T05:41:16;4.97;;;2.85;;
55146;SDS011;41039;49.830;23.988;2022-12-29T05:43:41;6.22;;;2.90;;
55146;SDS011;41039;49.830;23.988;2022-12-29T05:46:06;6.95;;;3.08;;
55146;SDS011;41039;49.830;23.988;2022-12-29T05:48:32;5.55;;;3.38;;
55146;SDS011;41039;49.830;23.988;2022-12-29T05:50:57;5.93;;;2.83;;
55146;SDS011;41039;49.830;23.988;2022-12-29T05:53:22;5.25;;;2.60;;
55146;SDS011;41039;49.830;23.988;2022-12-29T05:55:47;8.73;;;2.95;;
55146;SDS011;41039;49.830;23.988;2022-12-29T05:58:13;5.32;;;2.90;;
55146;SDS011;41039;49.830;23.988;2022-12-29T06:00:38;7.07;;;3.20;;
55146;SDS011;41039;49.830;23.988;2022-12-29T06:03:04;6.80;;;2.97;;
55146;SDS011;41039;49.830;23.988;2022-12-29T06:05:29;9.60;;;2.60;;
55146;SDS011;41039;49.830;23.988;2022-12-29T06:07:54;9.25;;;3.05;;
55146;SDS011;41039;49.830;23.988;2022-12-29T06:10:20;3.70;;;2.15;;
55146;SDS011;41039;49.830;23.988;2022-12-29T06:12:45;6.88;;;2.30;;
55146;SDS011;41039;49.830;23.988;2022-12-29T06:15:11;4.03;;;1.88;;
55146;SDS011;41039;49.830;23.988;2022-12-29T06:17:36;4.55;;;1.98;;
55146;SDS011;41039;49.830;23.988;2022-12-29T06:20:01;6.70;;;2.53;;
55146;SDS011;41039;49.830;23.988;2022-12-29T06:22:27;9.80;;;1.92;;
55146;SDS011;41039;49.830;23.988;2022-12-29T06:24:52;3.83;;;2.53;;
55146;SDS011;41039;49.830;23.988;2022-12-29T06:27:17;6.03;;;2.10;;
55146;SDS011;41039;49.830;23.988;2022-12-29T06:29:42;5.43;;;2.08;;
55146;SDS011;41039;49.830;23.988;2022-12-29T06:32:08;8.27;;;2.42;;
55146;SDS011;41039;49.830;23.988;2022-12-29T06:34:33;6.75;;;2.00;;
55146;SDS011;41039;49.830;23.988;2022-12-29T06:36:58;4.57;;;1.70;;
55146;SDS011;41039;49.830;23.988;2022-12-29T06:39:23;7.97;;;2.17;;
55146;SDS011;41039;49.830;23.988;2022-12-29T06:41:51;5.65;;;2.30;;
55146;SDS011;41039;49.830;23.988;2022-12-29T06:44:16;8.10;;;2.42;;
55146;SDS011;41039;49.830;23.988;2022-12-29T06:46:41;7.78;;;2.60;;
55146;SDS011;41039;49.830;23.988;2022-12-29T06:49:08;4.93;;;2.20;;
55146;SDS011;41039;49.830;23.988;2022-12-29T06:51:33;7.90;;;3.50;;
55146;SDS011;41039;49.830;23.988;2022-12-29T06:53:58;8.10;;;2.60;;
55146;SDS011;41039;49.830;23.988;2022-12-29T06:56:23;7.90;;;2.30;;
55146;SDS011;41039;49.830;23.988;2022-12-29T06:58:49;4.95;;;1.83;;
55146;SDS011;41039;49.830;23.988;2022-12-29T07:01:14;6.80;;;2.30;;
55146;SDS011;41039;49.830;23.988;2022-12-29T07:03:41;6.22;;;1.92;;
55146;SDS011;41039;49.830;23.988;2022-12-29T07:06:06;5.40;;;2.60;;
55146;SDS011;41039;49.830;23.988;2022-12-29T07:08:31;5.20;;;1.90;;
55146;SDS011;41039;49.830;23.988;2022-12-29T07:10:56;4.57;;;1.90;;
55146;SDS011;41039;49.830;23.988;2022-12-29T07:13:21;5.78;;;1.42;;
55146;SDS011;41039;49.830;23.988;2022-12-29T11:46:31;6.88;;;2.30;;
55146;SDS011;41039;49.830;23.988;2022-12-29T11:48:57;5.63;;;2.50;;
55146;SDS011;41039;49.830;23.988;2022-12-29T11:51:26;7.38;;;2.80;;
55146;SDS011;41039;49.830;23.988;2022-12-29T11:53:53;8.05;;;3.03;;
55146;SDS011;41039;49.830;23.988;2022-12-29T11:56:22;6.95;;;2.60;;
55146;SDS011;41039;49.830;23.988;2022-12-29T11:58:55;7.47;;;2.67;;
55146;SDS011;41039;49.830;23.988;2022-12-29T12:01:33;6.70;;;2.65;;
55146;SDS011;41039;49.830;23.988;2022-12-29T12:04:04;5.25;;;2.60;;
55146;SDS011;41039;49.830;23.988;2022-12-29T12:06:30;6.15;;;2.45;;
55146;SDS011;41039;49.830;23.988;2022-12-29T12:08:59;5.53;;;2.42;;
55146;SDS011;41039;49.830;23.988;2022-12-29T12:11:37;4.55;;;2.38;;
55146;SDS011;41039;49.830;23.988;2022-12-29T12:14:53;6.38;;;2.45;;
55146;SDS011;41039;49.830;23.988;2022-12-29T12:19:31;5.95;;;3.00;;
55146;SDS011;41039;49.830;23.988;2022-12-29T12:22:04;7.18;;;3.22;;
55146;SDS011;41039;49.830;23.988;2022-12-29T12:24:41;5.20;;;2.65;;
55146;SDS011;41039;49.830;23.988;2022-12-29T12:27:28;6.97;;;2.40;;
55146;SDS011;41039;49.830;23.988;2022-12-29T12:30:16;6.57;;;2.75;;
55146;SDS011;41039;49.830;23.988;2022-12-29T12:35:11;5.70;;;2.20;;
55146;SDS011;41039;49.830;23.988;2022-12-29T12:37:41;6.05;;;2.97;;
55146;SDS011;41039;49.830;23.988;2022-12-29T12:45:44;16.90;;;3.35;;
55146;SDS011;41039;49.830;23.988;2022-12-29T12:56:08;6.72;;;2.55;;
55146;SDS011;41039;49.830;23.988;2022-12-29T12:58:47;6.22;;;2.53;;
55146;SDS011;41039;49.830;23.988;2022-12-29T13:04:08;5.72;;;2.42;;
55146;SDS011;41039;49.830;23.988;2022-12-29T13:06:49;13.25;;;3.08;;
55146;SDS011;41039;49.830;23.988;2022-12-29T13:11:52;6.53;;;2.97;;
55146;SDS011;41039;49.830;23.988;2022-12-29T13:14:25;4.43;;;2.53;;
55146;SDS011;41039;49.830;23.988;2022-12-29T13:26:45;21.60;;;12.07;;
55146;SDS011;41039;49.830;23.988;2022-12-29T13:32:04;12.43;;;6.95;;
55146;SDS011;41039;49.830;23.988;2022-12-29T13:37:01;7.00;;;4.25;;
55146;SDS011;41039;49.830;23.988;2022-12-29T13:39:33;7.88;;;3.30;;
55146;SDS011;41039;49.830;23.988;2022-12-29T13:41:59;7.22;;;3.00;;
55146;SDS011;41039;49.830;23.988;2022-12-29T13:44:45;5.43;;;3.10;;
55146;SDS011;41039;49.830;23.988;2022-12-29T13:49:36;7.35;;;2.83;;
55146;SDS011;41039;49.830;23.988;2022-12-29T13:52:45;6.90;;;3.15;;
55146;SDS011;41039;49.830;23.988;2022-12-29T13:57:48;8.10;;;3.55;;
55146;SDS011;41039;49.830;23.988;2022-12-29T14:00:17;7.63;;;3.35;;
55146;SDS011;41039;49.830;23.988;2022-12-29T14:07:43;8.25;;;4.78;;
55146;SDS011;41039;49.830;23.988;2022-12-29T14:10:32;7.40;;;4.22;;
55146;SDS011;41039;49.830;23.988;2022-12-29T14:15:39;12.10;;;5.22;;
55146;SDS011;41039;49.830;23.988;2022-12-29T14:18:11;17.58;;;7.68;;
55146;SDS011;41039;49.830;23.988;2022-12-29T14:20:38;6.10;;;4.05;;
55146;SDS011;41039;49.830;23.988;2022-12-29T14:28:28;7.82;;;4.05;;
55146;SDS011;41039;49.830;23.988;2022-12-29T14:30:55;7.65;;;4.05;;
55146;SDS011;41039;49.830;23.988;2022-12-29T14:33:21;10.82;;;5.93;;
55146;SDS011;41039;49.830;23.988;2022-12-29T14:35:47;11.85;;;5.07;;
55146;SDS011;41039;49.830;23.988;2022-12-29T14:38:18;10.65;;;4.32;;
55146;SDS011;41039;49.830;23.988;2022-12-29T14:40:44;7.32;;;4.10;;
55146;SDS011;41039;49.830;23.988;2022-12-29T14:43:16;7.95;;;6.00;;
55146;SDS011;41039;49.830;23.988;2022-12-29T14:45:43;8.07;;;3.85;;
55146;SDS011;41039;49.830;23.988;2022-12-29T14:48:33;7.15;;;3.60;;
55146;SDS011;41039;49.830;23.988;2022-12-29T14:51:00;9.13;;;4.97;;
55146;SDS011;41039;49.830;23.988;2022-12-29T14:56:10;6.90;;;3.78;;
55146;SDS011;41039;49.830;23.988;2022-12-29T14:58:39;20.27;;;4.40;;
55146;SDS011;41039;49.830;23.988;2022-12-29T15:01:14;9.98;;;3.72;;
55146;SDS011;41039;49.830;23.988;2022-12-29T15:03:45;7.20;;;3.65;;
55146;SDS011;41039;49.830;23.988;2022-12-29T15:06:11;8.60;;;3.70;;
55146;SDS011;41039;49.830;23.988;2022-12-29T15:08:39;6.97;;;3.15;;
55146;SDS011;41039;49.830;23.988;2022-12-29T15:11:15;7.55;;;4.38;;
55146;SDS011;41039;49.830;23.988;2022-12-29T15:13:42;9.70;;;4.07;;
55146;SDS011;41039;49.830;23.988;2022-12-29T15:16:21;8.65;;;4.05;;
55146;SDS011;41039;49.830;23.988;2022-12-29T15:18:46;6.72;;;3.22;;
55146;SDS011;41039;49.830;23.988;2022-12-29T15:21:13;8.95;;;4.20;;
55146;SDS011;41039;49.830;23.988;2022-12-29T15:23:39;7.97;;;3.40;;
55146;SDS011;41039;49.830;23.988;2022-12-29T15:26:07;5.82;;;3.58;;
55146;SDS011;41039;49.830;23.988;2022-12-29T15:28:43;8.18;;;3.80;;
55146;SDS011;41039;49.830;23.988;2022-12-29T15:31:13;9.75;;;4.38;;
55146;SDS011;41039;49.830;23.988;2022-12-29T15:33:39;8.35;;;4.07;;
55146;SDS011;41039;49.830;23.988;2022-12-29T15:36:08;7.72;;;3.65;;
55146;SDS011;41039;49.830;23.988;2022-12-29T15:38:34;7.38;;;3.83;;
55146;SDS011;41039;49.830;23.988;2022-12-29T15:41:02;9.57;;;3.97;;
55146;SDS011;41039;49.830;23.988;2022-12-29T15:43:32;12.55;;;5.10;;
55146;SDS011;41039;49.830;23.988;2022-12-29T15:46:01;9.35;;;3.97;;
55146;SDS011;41039;49.830;23.988;2022-12-29T15:48:27;7.07;;;4.13;;
55146;SDS011;41039;49.830;23.988;2022-12-29T15:50:53;11.95;;;5.00;;
55146;SDS011;41039;49.830;23.988;2022-12-29T15:53:19;8.63;;;4.57;;
55146;SDS011;41039;49.830;23.988;2022-12-29T15:55:49;7.97;;;4.25;;
55146;SDS011;41039;49.830;23.988;2022-12-29T15:58:19;10.48;;;5.15;;
55146;SDS011;41039;49.830;23.988;2022-12-29T16:00:49;13.73;;;5.05;;
55146;SDS011;41039;49.830;23.988;2022-12-29T16:03:14;13.40;;;6.03;;
55146;SDS011;41039;49.830;23.988;2022-12-29T16:05:40;8.80;;;5.28;;
55146;SDS011;41039;49.830;23.988;2022-12-29T16:08:27;8.88;;;5.10;;
55146;SDS011;41039;49.830;23.988;2022-12-29T16:10:54;12.30;;;6.93;;
55146;SDS011;41039;49.830;23.988;2022-12-29T16:15:49;13.75;;;6.78;;
55146;SDS011;41039;49.830;23.988;2022-12-29T16:18:21;11.10;;;6.82;;
55146;SDS011;41039;49.830;23.988;2022-12-29T16:20:48;13.82;;;5.90;;
55146;SDS011;41039;49.830;23.988;2022-12-29T16:23:21;14.18;;;5.85;;
55146;SDS011;41039;49.830;23.988;2022-12-29T16:25:48;12.30;;;5.97;;
55146;SDS011;41039;49.830;23.988;2022-12-29T16:28:22;13.77;;;6.38;;
55146;SDS011;41039;49.830;23.988;2022-12-29T16:30:58;12.40;;;5.85;;
55146;SDS011;41039;49.830;23.988;2022-12-29T16:33:37;14.15;;;6.75;;
55146;SDS011;41039;49.830;23.988;2022-12-29T16:36:20;14.00;;;6.75;;
55146;SDS011;41039;49.830;23.988;2022-12-29T16:38:46;18.75;;;7.70;;
55146;SDS011;41039;49.830;23.988;2022-12-29T16:41:12;24.08;;;11.15;;
55146;SDS011;41039;49.830;23.988;2022-12-29T16:44:10;13.88;;;6.47;;
55146;SDS011;41039;49.830;23.988;2022-12-29T16:46:36;13.00;;;7.13;;
55146;SDS011;41039;49.830;23.988;2022-12-29T16:49:02;11.85;;;7.10;;
55146;SDS011;41039;49.830;23.988;2022-12-29T16:53:53;14.15;;;7.13;;
55146;SDS011;41039;49.830;23.988;2022-12-29T16:56:20;13.20;;;7.15;;
55146;SDS011;41039;49.830;23.988;2022-12-29T17:01:30;13.75;;;7.00;;
55146;SDS011;41039;49.830;23.988;2022-12-29T17:04:00;9.90;;;5.82;;
55146;SDS011;41039;49.830;23.988;2022-12-29T19:28:21;6.10;;;3.80;;
55146;SDS011;41039;49.830;23.988;2022-12-29T19:30:47;6.93;;;4.50;;
55146;SDS011;41039;49.830;23.988;2022-12-29T19:33:13;6.30;;;3.70;;
55146;SDS011;41039;49.830;23.988;2022-12-29T19:35:38;5.70;;;3.65;;
55146;SDS011;41039;49.830;23.988;2022-12-29T19:38:04;5.85;;;4.18;;
55146;SDS011;41039;49.830;23.988;2022-12-29T19:40:29;8.77;;;5.00;;
55146;SDS011;41039;49.830;23.988;2022-12-29T19:42:55;7.47;;;3.90;;
55146;SDS011;41039;49.830;23.988;2022-12-29T19:45:20;6.93;;;4.38;;
55146;SDS011;41039;49.830;23.988;2022-12-29T19:47:45;9.18;;;4.68;;
55146;SDS011;41039;49.830;23.988;2022-12-29T19:50:11;6.80;;;4.32;;
55146;SDS011;41039;49.830;23.988;2022-12-29T19:52:37;7.68;;;3.63;;
55146;SDS011;41039;49.830;23.988;2022-12-29T19:55:02;8.65;;;5.00;;
55146;SDS011;41039;49.830;23.988;2022-12-29T19:57:28;6.07;;;3.55;;
55146;SDS011;41039;49.830;23.988;2022-12-29T19:59:53;6.68;;;4.03;;
55146;SDS011;41039;49.830;23.988;2022-12-29T20:02:20;5.65;;;3.55;;
55146;SDS011;41039;49.830;23.988;2022-12-29T20:04:45;8.75;;;5.30;;
55146;SDS011;41039;49.830;23.988;2022-12-29T20:07:11;7.85;;;4.05;;
55146;SDS011;41039;49.830;23.988;2022-12-29T20:09:36;8.35;;;4.30;;
55146;SDS011;41039;49.830;23.988;2022-12-29T20:12:01;7.05;;;4.03;;
55146;SDS011;41039;49.830;23.988;2022-12-29T20:14:26;8.10;;;4.05;;
55146;SDS011;41039;49.830;23.988;2022-12-29T20:16:52;7.93;;;3.90;;
55146;SDS011;41039;49.830;23.988;2022-12-29T20:19:17;6.22;;;3.85;;
55146;SDS011;41039;49.830;23.988;2022-12-29T20:21:42;6.88;;;4.10;;
55146;SDS011;41039;49.830;23.988;2022-12-29T20:24:07;8.98;;;4.28;;
55146;SDS011;41039;49.830;23.988;2022-12-29T20:26:32;6.88;;;3.70;;
55146;SDS011;41039;49.830;23.988;2022-12-29T20:28:58;7.30;;;3.88;;
55146;SDS011;41039;49.830;23.988;2022-12-29T20:31:31;7.38;;;3.63;;
55146;SDS011;41039;49.830;23.988;2022-12-29T20:33:57;6.53;;;3.80;;
55146;SDS011;41039;49.830;23.988;2022-12-29T20:36:23;4.70;;;2.80;;
55146;SDS011;41039;49.830;23.988;2022-12-29T20:38:49;5.30;;;3.60;;
55146;SDS011;41039;49.830;23.988;2022-12-29T20:41:15;5.95;;;3.65;;
55146;SDS011;41039;49.830;23.988;2022-12-29T20:43:40;7.97;;;3.40;;
55146;SDS011;41039;49.830;23.988;2022-12-29T20:46:06;6.15;;;3.38;;
55146;SDS011;41039;49.830;23.988;2022-12-29T20:48:31;6.32;;;3.13;;
55146;SDS011;41039;49.830;23.988;2022-12-29T20:50:57;5.35;;;2.90;;
55146;SDS011;41039;49.830;23.988;2022-12-29T20:53:24;5.20;;;2.83;;
55146;SDS011;41039;49.830;23.988;2022-12-29T20:55:51;6.03;;;2.78;;
55146;SDS011;41039;49.830;23.988;2022-12-29T20:58:16;4.85;;;2.95;;
55146;SDS011;41039;49.830;23.988;2022-12-29T21:00:41;4.28;;;3.05;;
55146;SDS011;41039;49.830;23.988;2022-12-29T21:03:07;6.18;;;2.58;;
55146;SDS011;41039;49.830;23.988;2022-12-29T21:05:32;5.15;;;2.63;;
55146;SDS011;41039;49.830;23.988;2022-12-29T21:08:00;5.63;;;2.97;;
55146;SDS011;41039;49.830;23.988;2022-12-29T21:10:25;4.88;;;2.90;;
55146;SDS011;41039;49.830;23.988;2022-12-29T21:12:50;7.47;;;2.90;;
55146;SDS011;41039;49.830;23.988;2022-12-29T21:15:16;5.18;;;2.65;;
55146;SDS011;41039;49.830;23.988;2022-12-29T21:17:41;4.70;;;2.70;;
55146;SDS011;41039;49.830;23.988;2022-12-29T21:20:07;33.65;;;16.25;;
55146;SDS011;41039;49.830;23.988;2022-12-29T21:22:33;9.05;;;6.60;;
55146;SDS011;41039;49.830;23.988;2022-12-29T21:24:58;8.93;;;5.60;;
55146;SDS011;41039;49.830;23.988;2022-12-29T21:27:23;6.30;;;3.28;;
55146;SDS011;41039;49.830;23.988;2022-12-29T21:29:48;4.38;;;2.40;;
55146;SDS011;41039;49.830;23.988;2022-12-29T21:32:14;4.65;;;2.70;;
55146;SDS011;41039;49.830;23.988;2022-12-29T21:34:39;6.10;;;3.42;;
55146;SDS011;41039;49.830;23.988;2022-12-29T21:37:04;11.63;;;9.13;;
55146;SDS011;41039;49.830;23.988;2022-12-29T21:39:30;6.10;;;4.03;;
55146;SDS011;41039;49.830;23.988;2022-12-29T21:41:55;5.82;;;3.30;;
55146;SDS011;41039;49.830;23.988;2022-12-29T21:44:24;8.50;;;3.20;;
55146;SDS011;41039;49.830;23.988;2022-12-29T21:47:15;6.53;;;3.90;;
55146;SDS011;41039;49.830;23.988;2022-12-29T21:49:40;7.63;;;6.82;;
55146;SDS011;41039;49.830;23.988;2022-12-29T21:52:05;4.72;;;3.33;;
55146;SDS011;41039;49.830;23.988;2022-12-29T21:54:30;6.68;;;3.70;;
55146;SDS011;41039;49.830;23.988;2022-12-29T21:57:16;7.40;;;3.65;;
55146;SDS011;41039;49.830;23.988;2022-12-29T22:00:00;4.93;;;3.15;;
55146;SDS011;41039;49.830;23.988;2022-12-29T22:05:27;5.10;;;2.97;;
55146;SDS011;41039;49.830;23.988;2022-12-29T22:08:11;4.90;;;3.05;;
55146;SDS011;41039;49.830;23.988;2022-12-29T22:10:54;5.85;;;2.95;;
55146;SDS011;41039;49.830;23.988;2022-12-29T22:16:04;7.18;;;3.47;;
55146;SDS011;41039;49.830;23.988;2022-12-29T22:18:29;6.13;;;3.22;;
55146;SDS011;41039;49.830;23.988;2022-12-29T22:20:55;5.22;;;3.45;;
55146;SDS011;41039;49.830;23.988;2022-12-29T22:23:20;5.00;;;3.33;;
55146;SDS011;41039;49.830;23.988;2022-12-29T22:25:45;5.20;;;3.25;;
55146;SDS011;41039;49.830;23.988;2022-12-29T22:28:12;8.40;;;4.90;;
55146;SDS011;41039;49.830;23.988;2022-12-29T22:30:37;6.57;;;4.38;;
55146;SDS011;41039;49.830;23.988;2022-12-29T22:33:03;7.40;;;4.38;;
55146;SDS011;41039;49.830;23.988;2022-12-29T22:35:28;10.10;;;5.80;;
55146;SDS011;41039;49.830;23.988;2022-12-29T22:37:53;9.80;;;4.90;;
55146;SDS011;41039;49.830;23.988;2022-12-29T22:40:19;7.25;;;4.57;;
55146;SDS011;41039;49.830;23.988;2022-12-29T22:42:44;8.07;;;4.63;;
55146;SDS011;41039;49.830;23.988;2022-12-29T22:45:09;7.25;;;4.70;;
55146;SDS011;41039;49.830;23.988;2022-12-29T22:47:35;10.13;;;5.30;;
55146;SDS011;41039;49.830;23.988;2022-12-29T22:50:00;8.52;;;5.53;;
55146;SDS011;41039;49.830;23.988;2022-12-29T22:52:26;10.15;;;5.43;;
55146;SDS011;41039;49.830;23.988;2022-12-29T22:54:51;8.90;;;5.50;;
55146;SDS011;41039;49.830;23.988;2022-12-29T22:57:16;9.23;;;4.65;;
55146;SDS011;41039;49.830;23.988;2022-12-29T22:59:41;8.50;;;5.18;;
55146;SDS011;41039;49.830;23.988;2022-12-29T23:02:07;8.25;;;4.95;;
55146;SDS011;41039;49.830;23.988;2022-12-29T23:04:32;10.20;;;5.10;;
55146;SDS011;41039;49.830;23.988;2022-12-29T23:06:57;7.63;;;4.75;;
55146;SDS011;41039;49.830;23.988;2022-12-29T23:09:23;7.35;;;4.53;;
55146;SDS011;41039;49.830;23.988;2022-12-29T23:11:48;8.32;;;4.55;;
55146;SDS011;41039;49.830;23.988;2022-12-29T23:14:14;8.55;;;4.30;;
55146;SDS011;41039;49.830;23.988;2022-12-29T23:16:41;8.00;;;4.88;;
55146;SDS011;41039;49.830;23.988;2022-12-29T23:19:06;9.43;;;5.30;;